x

Cape Cleare - 17 Nm South Of Montague Is, Ak (46076) Wave Buoy

6:50am - Mon 27th Feb 2017 All times are AKST. -9 hours from GMT.

  • Sig Wave height 4.6ft
  • Swell Direction
  • Peak Period 8s
  • Average Period 6s
  • Wind
    4mph, 7mph gusts
  • Sea Temp 42°f
  • Air Temp 39°f
  • Sea Pressure 1013.4mb
  • Cape Cleare - 17 Nm South Of Montague Is,  Ak
  • Cape Cleare - 17 Nm South Of Montague Is,  Ak

More Historic Weather Station data

Upgrade to MSW Pro to gain access to the past 30 days of data for over 8000 Wavebouys and Weather Stations around the globe.

Join Pro

Comparision Forecast

View Surf forecast
   
Mon 02/27 6:50am 4.5ft 8s 6s 4 7 mph 1013.4mb 42f 39f
5:50am 4.5ft 9s 6s 11 13 mph 1013.6mb 42f 40f
4:50am 5ft 9s 6s 13 18 mph 1014mb 42f 41f
3:50am 4.5ft 8s 5s 16 18 mph 1014.6mb 42f 41f
2:50am 5ft 9s 6s 11 13 mph 1015.3mb 42f 41f
1:50am 5ft 9s 6s 11 16 mph 1016mb 42f 41f
12:50am 5ft 9s 6s 11 13 mph 1016.5mb 42f 41f
Sun 02/26 11:50pm 5.5ft 7s 6s 11 16 mph 1017.2mb 41f 41f
10:50pm 6ft 8s 6s 9 11 mph 1017.5mb 41f 41f
9:50pm 6ft 8s 6s 13 18 mph 1018mb 42f 42f
8:50pm 5.5ft 8s 6s 13 18 mph 1018.7mb 42f 42f
7:50pm 6ft 8s 6s 13 16 mph 1019mb 42f 42f
6:50pm 5ft 8s 6s 18 20 mph 1019mb 42f 43f
5:50pm 5ft 7s 6s 16 18 mph 1019.3mb 42f 43f
4:50pm 6ft 8s 6s 18 20 mph 1019.8mb 42f 42f
3:50pm 6ft 8s 6s 16 18 mph 1020.4mb 42f 42f
2:50pm 6ft 8s 6s 13 16 mph 1021mb 42f 42f
1:50pm 6ft 8s 6s 9
mph
1021.6mb 42f 41f
12:50pm 6ft 8s 6s 13 18 mph 1021.8mb 42f 42f
11:50am 5.5ft 7s 6s 22 27 mph 1021.4mb 42f 42f
10:50am 5.5ft 7s 6s 16 20 mph 1022.4mb 42f 41f
9:50am 5.5ft 8s 6s 20 25 mph 1022.8mb 41f 42f
8:50am 6ft 7s 6s 9 11 mph 1023.3mb 41f 40f
7:50am 6ft 8s 7s 9 11 mph 1024mb 42f 40f
6:50am 6ft 8s 7s 7 9 mph 1024.5mb 42f 40f
5:50am 6ft 7s 6s 7
mph
1025.1mb 42f 40f
4:50am 5.5ft 8s 6s 4 7 mph 1025.4mb 42f 40f
3:50am 5ft 8s 6s 11 16 mph 1026mb 42f 41f
2:50am 5ft 11s 6s 11 13 mph 1026.6mb 42f 41f
1:50am 5ft 9s 6s 11 13 mph 1027.5mb 42f 41f
12:50am 4.5ft 12s 6s 11 16 mph 1028.4mb 42f 41f
Sat 02/25 11:50pm 4.5ft 12s 7s 13 18 mph 1028.9mb 41f 40f
10:50pm 4.5ft 12s 7s 13 16 mph 1029.8mb 41f 41f
9:50pm 5ft 13s 7s 11 13 mph 1030.4mb 41f 41f
8:50pm 4.5ft 11s 6s 11 13 mph 1031mb 41f 40f
7:50pm 5ft 11s 6s 13 16 mph 1031.5mb 41f 40f
6:50pm 4.5ft 13s 7s 13 16 mph 1032.1mb 41f 41f
5:50pm 4.5ft 10s 6s 7 9 mph 1032.2mb 42f 41f
4:50pm 5ft 10s 6s 7
mph
1032.9mb 42f 42f
3:50pm 5ft 13s 6s 7 9 mph 1033.3mb 42f 42f
2:50pm 5ft 13s 6s 9 11 mph 1033.5mb 42f 42f
1:50pm 5.5ft 10s 6s 7 9 mph 1033.3mb 42f 42f
12:50pm 6ft 13s 6s 13 16 mph 1033.4mb 42f 41f
11:50am 7ft 9s 6s 18 20 mph 1033.3mb 42f 41f
10:50am 6.5ft 10s 6s 20 25 mph 1032.6mb 42f 41f
9:50am 6.5ft 13s 6s 22 29 mph 1032.3mb 42f 41f
8:50am 7ft 8s 6s 20 25 mph 1033.1mb 42f 41f
7:50am 7ft 6s 6s 25 29 mph 1031.8mb 42f 41f
6:50am 7ft 8s 6s 25 29 mph 1031.3mb 42f 41f
5:50am 7ft 8s 6s 29 31 mph 1031mb 42f 42f
4:50am 7ft 8s 6s 22 25 mph 1030.9mb 42f 42f
3:50am 7.5ft 8s 6s 27 31 mph 1030mb 42f 41f
2:50am 8ft 8s 6s 25 31 mph 1029.3mb 42f 42f
1:50am 8ft 8s 6s 22 27 mph 1028.5mb 42f 42f
12:50am 8ft 8s 6s 25 29 mph 1027.6mb 42f 42f
Fri 02/24 11:50pm 7ft 8s 6s 22 29 mph 1027.1mb 42f 42f
10:50pm 7.5ft 8s 6s 27 31 mph 1026.4mb 42f 42f
9:50pm 7.5ft 8s 6s 27 29 mph 1026.1mb 42f 42f
8:50pm 7ft 8s 6s 13 16 mph 1026.5mb 42f 40f
7:50pm 7ft 7s 7s 18 22 mph 1026.4mb 42f 39f
6:50pm 7ft 8s 6s 16 18 mph 1026mb 42f 39f
5:50pm 7ft 11s 6s 16 18 mph 1026.1mb 42f 40f
4:50pm 6ft 10s 6s 20 25 mph 1026.1mb 42f 41f
3:50pm 7ft 10s 6s 20 25 mph 1026.6mb 42f 41f
2:50pm 6ft 8s 5s 22 29 mph 1027mb 42f 41f
1:50pm 6ft 8s 5s 18 22 mph 1027.7mb 42f 41f
12:50pm 6.5ft 8s 6s 18 25 mph 1028mb 42f 41f
11:50am 7ft 8s 6s 18 25 mph 1028.3mb 42f 42f
10:50am 6.5ft 8s 6s 18 22 mph 1028.6mb 42f 41f
9:50am 6ft 8s 6s 11 18 mph 1028.8mb 42f 40f
8:50am 6ft 8s 6s 11 13 mph 1029.1mb 42f 40f
7:50am 6ft 8s 7s 13 16 mph 1029.1mb 42f 40f
6:50am 6ft 8s 7s 11 13 mph 1029.4mb 42f 40f
5:50am 6ft 8s 7s 11 16 mph 1029.7mb 42f 40f
4:50am 5.5ft 7s 6s 9 11 mph 1030mb 42f 41f
3:50am 5.5ft 7s 6s 9 13 mph 1030.2mb 42f 40f
2:50am 5ft 10s 6s 11 16 mph 1030.3mb 42f 40f
1:50am 4.5ft 6s 6s 11 16 mph 1030.3mb 42f 40f
12:50am 4ft 9s 6s 13 18 mph 1030.6mb 42f 40f
Thu 02/23 11:50pm 4ft 11s 6s 9 13 mph 1030.4mb 42f 40f
10:50pm 4.5ft 9s 7s 11 16 mph 1030.8mb 42f 41f
9:50pm 4.5ft 9s 7s 9 11 mph 1031.1mb 42f 41f
8:50pm 4.5ft 9s 7s 9 11 mph 1030.9mb 42f 41f
7:50pm 4.5ft 10s 7s 4 7 mph 1031.4mb 42f 41f
6:50pm 3.5ft 10s 6s 9 11 mph 1031.4mb 42f 40f
5:50pm 4ft 9s 7s 9 13 mph 1031.4mb 42f 40f
4:50pm 4ft 9s 6s 11 16 mph 1032.1mb 42f 40f